sensor_id;sensor_type;location;lat;lon;timestamp;temperature;humidity
18581;DHT22;9420;50.876;7.012;2023-06-26T00:02:14;21.50;69.88
18581;DHT22;9420;50.876;7.012;2023-06-26T00:04:42;21.42;69.56
18581;DHT22;9420;50.876;7.012;2023-06-26T00:07:09;21.50;69.60
18581;DHT22;9420;50.876;7.012;2023-06-26T00:09:36;21.32;70.31
18581;DHT22;9420;50.876;7.012;2023-06-26T00:12:03;21.08;71.35
18581;DHT22;9420;50.876;7.012;2023-06-26T00:14:31;21.20;71.20
18581;DHT22;9420;50.876;7.012;2023-06-26T00:16:57;21.24;71.24
18581;DHT22;9420;50.876;7.012;2023-06-26T00:19:24;21.29;69.84
18581;DHT22;9420;50.876;7.012;2023-06-26T00:21:51;21.17;71.03
18581;DHT22;9420;50.876;7.012;2023-06-26T00:24:18;21.08;70.86
18581;DHT22;9420;50.876;7.012;2023-06-26T00:26:46;21.10;71.04
18581;DHT22;9420;50.876;7.012;2023-06-26T00:29:13;21.07;71.00
18581;DHT22;9420;50.876;7.012;2023-06-26T00:31:42;21.08;70.29
18581;DHT22;9420;50.876;7.012;2023-06-26T00:34:08;21.12;69.59
18581;DHT22;9420;50.876;7.012;2023-06-26T00:36:35;21.35;68.05
18581;DHT22;9420;50.876;7.012;2023-06-26T00:39:02;21.07;70.09
18581;DHT22;9420;50.876;7.012;2023-06-26T00:41:29;21.05;69.25
18581;DHT22;9420;50.876;7.012;2023-06-26T00:43:56;21.00;69.36
18581;DHT22;9420;50.876;7.012;2023-06-26T00:46:22;21.10;69.04
18581;DHT22;9420;50.876;7.012;2023-06-26T00:48:51;21.10;68.80
18581;DHT22;9420;50.876;7.012;2023-06-26T00:51:18;20.85;69.61
18581;DHT22;9420;50.876;7.012;2023-06-26T00:53:47;20.88;69.36
18581;DHT22;9420;50.876;7.012;2023-06-26T00:56:15;20.92;69.99
18581;DHT22;9420;50.876;7.012;2023-06-26T00:58:41;20.90;69.55
18581;DHT22;9420;50.876;7.012;2023-06-26T01:01:08;21.04;69.21
18581;DHT22;9420;50.876;7.012;2023-06-26T01:03:42;20.98;69.48
18581;DHT22;9420;50.876;7.012;2023-06-26T01:06:14;21.04;69.41
18581;DHT22;9420;50.876;7.012;2023-06-26T01:08:41;21.05;69.26
18581;DHT22;9420;50.876;7.012;2023-06-26T01:11:08;20.97;69.44
18581;DHT22;9420;50.876;7.012;2023-06-26T01:13:35;21.04;69.38
18581;DHT22;9420;50.876;7.012;2023-06-26T01:16:04;20.94;70.47
18581;DHT22;9420;50.876;7.012;2023-06-26T01:18:32;20.92;69.04
18581;DHT22;9420;50.876;7.012;2023-06-26T01:21:00;21.08;69.57
18581;DHT22;9420;50.876;7.012;2023-06-26T01:23:31;21.10;69.27
18581;DHT22;9420;50.876;7.012;2023-06-26T01:26:14;20.91;69.70
18581;DHT22;9420;50.876;7.012;2023-06-26T01:28:42;20.94;69.47
18581;DHT22;9420;50.876;7.012;2023-06-26T01:31:10;20.79;70.28
18581;DHT22;9420;50.876;7.012;2023-06-26T01:33:38;20.71;70.39
18581;DHT22;9420;50.876;7.012;2023-06-26T01:36:05;20.69;70.30
18581;DHT22;9420;50.876;7.012;2023-06-26T01:38:32;20.54;70.99
18581;DHT22;9420;50.876;7.012;2023-06-26T01:41:00;20.52;70.97
18581;DHT22;9420;50.876;7.012;2023-06-26T01:43:34;20.63;70.57
18581;DHT22;9420;50.876;7.012;2023-06-26T01:46:10;20.52;71.16
18581;DHT22;9420;50.876;7.012;2023-06-26T01:48:42;20.47;71.59
18581;DHT22;9420;50.876;7.012;2023-06-26T01:51:14;20.57;71.17
18581;DHT22;9420;50.876;7.012;2023-06-26T01:53:46;20.64;71.18
18581;DHT22;9420;50.876;7.012;2023-06-26T01:56:18;20.50;71.33
18581;DHT22;9420;50.876;7.012;2023-06-26T01:58:47;20.36;72.25
18581;DHT22;9420;50.876;7.012;2023-06-26T02:01:14;20.33;72.15
18581;DHT22;9420;50.876;7.012;2023-06-26T02:03:41;20.26;72.30
18581;DHT22;9420;50.876;7.012;2023-06-26T02:06:08;20.25;72.01
18581;DHT22;9420;50.876;7.012;2023-06-26T02:08:35;20.22;72.28
18581;DHT22;9420;50.876;7.012;2023-06-26T02:11:02;20.09;72.81
18581;DHT22;9420;50.876;7.012;2023-06-26T02:13:28;19.95;73.41
18581;DHT22;9420;50.876;7.012;2023-06-26T02:15:56;19.79;73.23
18581;DHT22;9420;50.876;7.012;2023-06-26T02:18:23;20.53;69.01
18581;DHT22;9420;50.876;7.012;2023-06-26T02:20:50;20.57;71.54
18581;DHT22;9420;50.876;7.012;2023-06-26T02:23:17;20.15;72.42
18581;DHT22;9420;50.876;7.012;2023-06-26T02:25:43;20.11;72.53
18581;DHT22;9420;50.876;7.012;2023-06-26T02:28:10;20.05;73.47
18581;DHT22;9420;50.876;7.012;2023-06-26T02:30:37;19.94;73.82
18581;DHT22;9420;50.876;7.012;2023-06-26T02:33:04;19.82;74.21
18581;DHT22;9420;50.876;7.012;2023-06-26T02:35:31;19.99;73.19
18581;DHT22;9420;50.876;7.012;2023-06-26T02:37:58;20.05;72.78
18581;DHT22;9420;50.876;7.012;2023-06-26T02:40:25;19.78;73.52
18581;DHT22;9420;50.876;7.012;2023-06-26T02:42:52;20.16;71.67
18581;DHT22;9420;50.876;7.012;2023-06-26T02:45:19;20.02;73.46
18581;DHT22;9420;50.876;7.012;2023-06-26T02:47:45;19.79;73.90
18581;DHT22;9420;50.876;7.012;2023-06-26T02:50:13;19.71;73.73
18581;DHT22;9420;50.876;7.012;2023-06-26T02:52:40;19.78;73.53
18581;DHT22;9420;50.876;7.012;2023-06-26T02:55:07;19.65;74.44
18581;DHT22;9420;50.876;7.012;2023-06-26T02:57:33;19.54;75.00
18581;DHT22;9420;50.876;7.012;2023-06-26T03:00:00;19.56;74.26
18581;DHT22;9420;50.876;7.012;2023-06-26T03:02:26;19.70;73.89
18581;DHT22;9420;50.876;7.012;2023-06-26T03:04:53;19.49;74.89
18581;DHT22;9420;50.876;7.012;2023-06-26T03:07:21;19.73;74.81
18581;DHT22;9420;50.876;7.012;2023-06-26T03:09:48;19.61;75.00
18581;DHT22;9420;50.876;7.012;2023-06-26T03:12:14;20.04;72.82
18581;DHT22;9420;50.876;7.012;2023-06-26T03:14:41;20.04;73.78
18581;DHT22;9420;50.876;7.012;2023-06-26T03:17:08;20.06;73.54
18581;DHT22;9420;50.876;7.012;2023-06-26T03:19:34;20.11;73.62
18581;DHT22;9420;50.876;7.012;2023-06-26T03:22:01;19.73;74.96
18581;DHT22;9420;50.876;7.012;2023-06-26T03:24:30;19.63;75.47
18581;DHT22;9420;50.876;7.012;2023-06-26T03:26:57;19.77;75.17
18581;DHT22;9420;50.876;7.012;2023-06-26T03:29:23;19.63;75.64
18581;DHT22;9420;50.876;7.012;2023-06-26T03:31:50;19.96;73.15
18581;DHT22;9420;50.876;7.012;2023-06-26T03:34:16;19.84;74.54
18581;DHT22;9420;50.876;7.012;2023-06-26T03:36:43;20.35;70.92
18581;DHT22;9420;50.876;7.012;2023-06-26T03:39:09;20.76;67.12
18581;DHT22;9420;50.876;7.012;2023-06-26T03:41:37;21.27;64.83
18581;DHT22;9420;50.876;7.012;2023-06-26T03:44:04;21.48;64.12
18581;DHT22;9420;50.876;7.012;2023-06-26T03:46:31;21.45;64.69
18581;DHT22;9420;50.876;7.012;2023-06-26T03:48:57;21.73;62.84
18581;DHT22;9420;50.876;7.012;2023-06-26T03:51:24;21.87;62.27
18581;DHT22;9420;50.876;7.012;2023-06-26T03:53:51;21.90;62.24
18581;DHT22;9420;50.876;7.012;2023-06-26T03:56:17;21.86;62.73
18581;DHT22;9420;50.876;7.012;2023-06-26T03:58:45;22.03;63.42
18581;DHT22;9420;50.876;7.012;2023-06-26T04:01:12;21.86;63.42
18581;DHT22;9420;50.876;7.012;2023-06-26T04:03:39;22.01;63.55
18581;DHT22;9420;50.876;7.012;2023-06-26T04:06:05;22.00;64.66
18581;DHT22;9420;50.876;7.012;2023-06-26T04:08:32;22.00;66.74
18581;DHT22;9420;50.876;7.012;2023-06-26T04:10:58;21.75;67.47
18581;DHT22;9420;50.876;7.012;2023-06-26T04:13:25;22.18;63.38
18581;DHT22;9420;50.876;7.012;2023-06-26T04:15:53;22.06;64.91
18581;DHT22;9420;50.876;7.012;2023-06-26T04:18:19;21.94;67.59
18581;DHT22;9420;50.876;7.012;2023-06-26T04:21:05;21.97;63.74
18581;DHT22;9420;50.876;7.012;2023-06-26T04:23:32;22.17;63.20
18581;DHT22;9420;50.876;7.012;2023-06-26T04:25:59;22.14;63.31
18581;DHT22;9420;50.876;7.012;2023-06-26T04:28:25;21.86;66.01
18581;DHT22;9420;50.876;7.012;2023-06-26T04:30:53;22.14;64.27
18581;DHT22;9420;50.876;7.012;2023-06-26T04:33:20;22.11;63.88
18581;DHT22;9420;50.876;7.012;2023-06-26T04:35:47;21.93;67.59
18581;DHT22;9420;50.876;7.012;2023-06-26T04:38:15;22.00;64.67
18581;DHT22;9420;50.876;7.012;2023-06-26T04:40:41;22.07;64.46
18581;DHT22;9420;50.876;7.012;2023-06-26T04:43:08;22.07;64.74
18581;DHT22;9420;50.876;7.012;2023-06-26T04:45:34;22.21;64.31
18581;DHT22;9420;50.876;7.012;2023-06-26T04:48:03;22.18;64.46
18581;DHT22;9420;50.876;7.012;2023-06-26T04:50:31;22.22;64.29
18581;DHT22;9420;50.876;7.012;2023-06-26T04:52:58;22.07;65.36
18581;DHT22;9420;50.876;7.012;2023-06-26T04:55:25;22.10;64.72
18581;DHT22;9420;50.876;7.012;2023-06-26T04:57:52;22.06;65.01
18581;DHT22;9420;50.876;7.012;2023-06-26T05:00:18;21.98;65.83
18581;DHT22;9420;50.876;7.012;2023-06-26T05:02:45;22.08;64.57
18581;DHT22;9420;50.876;7.012;2023-06-26T05:05:13;22.21;64.38
18581;DHT22;9420;50.876;7.012;2023-06-26T05:07:41;22.00;65.17
18581;DHT22;9420;50.876;7.012;2023-06-26T05:10:08;22.24;64.30
18581;DHT22;9420;50.876;7.012;2023-06-26T05:12:34;22.25;64.47
18581;DHT22;9420;50.876;7.012;2023-06-26T05:15:01;22.43;63.39
18581;DHT22;9420;50.876;7.012;2023-06-26T05:17:28;22.54;63.44
18581;DHT22;9420;50.876;7.012;2023-06-26T05:19:55;22.44;63.64
18581;DHT22;9420;50.876;7.012;2023-06-26T05:22:23;22.52;63.41
18581;DHT22;9420;50.876;7.012;2023-06-26T05:24:53;22.43;61.64
18581;DHT22;9420;50.876;7.012;2023-06-26T05:27:24;22.31;62.35
18581;DHT22;9420;50.876;7.012;2023-06-26T05:29:51;22.45;62.76
18581;DHT22;9420;50.876;7.012;2023-06-26T05:32:19;22.51;63.05
18581;DHT22;9420;50.876;7.012;2023-06-26T05:34:47;22.40;62.90
18581;DHT22;9420;50.876;7.012;2023-06-26T05:37:18;22.65;61.15
18581;DHT22;9420;50.876;7.012;2023-06-26T05:39:48;22.34;62.32
18581;DHT22;9420;50.876;7.012;2023-06-26T05:42:17;22.48;62.35
18581;DHT22;9420;50.876;7.012;2023-06-26T05:44:43;22.47;62.17
18581;DHT22;9420;50.876;7.012;2023-06-26T05:47:10;22.28;61.87
18581;DHT22;9420;50.876;7.012;2023-06-26T05:49:37;22.25;61.49
18581;DHT22;9420;50.876;7.012;2023-06-26T05:52:04;22.14;62.19
18581;DHT22;9420;50.876;7.012;2023-06-26T05:54:32;22.11;62.36
18581;DHT22;9420;50.876;7.012;2023-06-26T05:57:00;22.16;62.33
18581;DHT22;9420;50.876;7.012;2023-06-26T05:59:30;22.04;62.85
18581;DHT22;9420;50.876;7.012;2023-06-26T06:01:57;21.86;63.44
18581;DHT22;9420;50.876;7.012;2023-06-26T06:04:24;21.79;63.60
18581;DHT22;9420;50.876;7.012;2023-06-26T06:06:51;21.92;63.54
18581;DHT22;9420;50.876;7.012;2023-06-26T06:09:18;22.14;63.51
18581;DHT22;9420;50.876;7.012;2023-06-26T06:11:45;22.28;62.95
18581;DHT22;9420;50.876;7.012;2023-06-26T06:14:13;22.35;63.26
18581;DHT22;9420;50.876;7.012;2023-06-26T06:16:39;22.34;62.45
18581;DHT22;9420;50.876;7.012;2023-06-26T06:19:06;22.31;62.97
18581;DHT22;9420;50.876;7.012;2023-06-26T06:21:36;22.38;62.77
18581;DHT22;9420;50.876;7.012;2023-06-26T06:24:03;22.33;63.34
18581;DHT22;9420;50.876;7.012;2023-06-26T06:26:30;22.22;63.80
18581;DHT22;9420;50.876;7.012;2023-06-26T06:28:56;22.10;63.77
18581;DHT22;9420;50.876;7.012;2023-06-26T06:31:24;22.20;63.54
18581;DHT22;9420;50.876;7.012;2023-06-26T06:33:53;21.98;64.38
18581;DHT22;9420;50.876;7.012;2023-06-26T06:36:20;22.03;64.93
18581;DHT22;9420;50.876;7.012;2023-06-26T06:38:46;22.27;64.08
18581;DHT22;9420;50.876;7.012;2023-06-26T06:41:13;22.18;63.53
18581;DHT22;9420;50.876;7.012;2023-06-26T06:43:41;22.16;64.09
18581;DHT22;9420;50.876;7.012;2023-06-26T06:46:08;22.08;63.91
18581;DHT22;9420;50.876;7.012;2023-06-26T06:48:36;22.22;64.23
18581;DHT22;9420;50.876;7.012;2023-06-26T06:51:03;22.27;64.07
18581;DHT22;9420;50.876;7.012;2023-06-26T06:53:30;21.87;64.95
18581;DHT22;9420;50.876;7.012;2023-06-26T06:55:57;22.10;64.03
18581;DHT22;9420;50.876;7.012;2023-06-26T06:58:23;22.10;64.66
18581;DHT22;9420;50.876;7.012;2023-06-26T07:00:50;21.80;65.47
18581;DHT22;9420;50.876;7.012;2023-06-26T07:03:17;21.65;65.91
18581;DHT22;9420;50.876;7.012;2023-06-26T07:05:45;21.89;65.61
18581;DHT22;9420;50.876;7.012;2023-06-26T07:08:11;21.94;65.58
18581;DHT22;9420;50.876;7.012;2023-06-26T07:10:38;21.92;65.78
18581;DHT22;9420;50.876;7.012;2023-06-26T07:13:05;21.85;65.25
18581;DHT22;9420;50.876;7.012;2023-06-26T07:15:34;22.01;65.18
18581;DHT22;9420;50.876;7.012;2023-06-26T07:18:00;22.24;64.79
18581;DHT22;9420;50.876;7.012;2023-06-26T07:20:27;22.35;64.59
18581;DHT22;9420;50.876;7.012;2023-06-26T07:22:55;22.47;65.11
18581;DHT22;9420;50.876;7.012;2023-06-26T07:25:21;22.44;64.46
18581;DHT22;9420;50.876;7.012;2023-06-26T07:27:48;22.25;65.12
18581;DHT22;9420;50.876;7.012;2023-06-26T07:30:15;22.22;65.44
18581;DHT22;9420;50.876;7.012;2023-06-26T07:32:44;22.56;64.41
18581;DHT22;9420;50.876;7.012;2023-06-26T07:35:11;22.44;64.39
18581;DHT22;9420;50.876;7.012;2023-06-26T07:37:38;22.51;64.55
18581;DHT22;9420;50.876;7.012;2023-06-26T07:40:10;22.51;64.96
18581;DHT22;9420;50.876;7.012;2023-06-26T07:42:38;22.79;64.74
18581;DHT22;9420;50.876;7.012;2023-06-26T07:45:05;22.81;63.74
18581;DHT22;9420;50.876;7.012;2023-06-26T07:47:37;23.34;62.98
18581;DHT22;9420;50.876;7.012;2023-06-26T07:50:04;23.39;62.74
18581;DHT22;9420;50.876;7.012;2023-06-26T07:52:31;22.79;63.34
18581;DHT22;9420;50.876;7.012;2023-06-26T07:54:58;22.73;63.30
18581;DHT22;9420;50.876;7.012;2023-06-26T07:57:30;22.81;63.66
18581;DHT22;9420;50.876;7.012;2023-06-26T07:59:57;22.61;64.73
18581;DHT22;9420;50.876;7.012;2023-06-26T08:02:24;22.89;62.92
18581;DHT22;9420;50.876;7.012;2023-06-26T08:04:50;22.99;63.19
18581;DHT22;9420;50.876;7.012;2023-06-26T08:07:17;23.14;61.81
18581;DHT22;9420;50.876;7.012;2023-06-26T08:09:44;23.03;62.62
18581;DHT22;9420;50.876;7.012;2023-06-26T08:12:11;22.95;63.25
18581;DHT22;9420;50.876;7.012;2023-06-26T08:14:38;22.64;64.00
18581;DHT22;9420;50.876;7.012;2023-06-26T08:17:05;22.98;63.14
18581;DHT22;9420;50.876;7.012;2023-06-26T08:19:32;23.51;62.01
18581;DHT22;9420;50.876;7.012;2023-06-26T08:21:58;23.53;61.91
18581;DHT22;9420;50.876;7.012;2023-06-26T08:24:25;23.43;62.58
18581;DHT22;9420;50.876;7.012;2023-06-26T08:26:51;23.28;62.49
18581;DHT22;9420;50.876;7.012;2023-06-26T08:29:18;22.96;62.36
18581;DHT22;9420;50.876;7.012;2023-06-26T08:31:46;23.43;60.78
18581;DHT22;9420;50.876;7.012;2023-06-26T08:34:12;23.24;61.88
18581;DHT22;9420;50.876;7.012;2023-06-26T08:36:39;23.07;62.12
18581;DHT22;9420;50.876;7.012;2023-06-26T08:39:05;23.04;63.73
18581;DHT22;9420;50.876;7.012;2023-06-26T08:41:33;23.20;61.37
18581;DHT22;9420;50.876;7.012;2023-06-26T08:44:00;23.23;62.42
18581;DHT22;9420;50.876;7.012;2023-06-26T08:46:28;23.68;60.61
18581;DHT22;9420;50.876;7.012;2023-06-26T08:49:01;23.44;60.26
18581;DHT22;9420;50.876;7.012;2023-06-26T08:51:28;23.57;60.89
18581;DHT22;9420;50.876;7.012;2023-06-26T08:53:57;23.57;60.71
18581;DHT22;9420;50.876;7.012;2023-06-26T08:56:24;24.15;59.00
18581;DHT22;9420;50.876;7.012;2023-06-26T08:58:52;23.86;60.29
18581;DHT22;9420;50.876;7.012;2023-06-26T09:01:20;23.79;60.56
18581;DHT22;9420;50.876;7.012;2023-06-26T09:03:47;23.91;59.59
18581;DHT22;9420;50.876;7.012;2023-06-26T09:06:15;23.95;59.49
18581;DHT22;9420;50.876;7.012;2023-06-26T09:08:43;23.60;60.62
18581;DHT22;9420;50.876;7.012;2023-06-26T09:11:10;23.97;59.37
18581;DHT22;9420;50.876;7.012;2023-06-26T09:13:37;23.65;60.56
18581;DHT22;9420;50.876;7.012;2023-06-26T09:16:06;23.71;60.02
18581;DHT22;9420;50.876;7.012;2023-06-26T09:18:33;23.34;60.62
18581;DHT22;9420;50.876;7.012;2023-06-26T09:21:00;23.49;60.57
18581;DHT22;9420;50.876;7.012;2023-06-26T09:23:33;23.36;60.84
18581;DHT22;9420;50.876;7.012;2023-06-26T09:26:02;24.26;59.21
18581;DHT22;9420;50.876;7.012;2023-06-26T09:28:29;23.99;59.28
18581;DHT22;9420;50.876;7.012;2023-06-26T09:31:00;23.94;58.12
18581;DHT22;9420;50.876;7.012;2023-06-26T09:33:27;24.40;57.79
18581;DHT22;9420;50.876;7.012;2023-06-26T09:35:53;23.82;58.07
18581;DHT22;9420;50.876;7.012;2023-06-26T09:38:20;24.09;58.52
18581;DHT22;9420;50.876;7.012;2023-06-26T09:40:48;23.78;58.80
18581;DHT22;9420;50.876;7.012;2023-06-26T09:43:15;23.55;59.17
18581;DHT22;9420;50.876;7.012;2023-06-26T09:45:44;24.32;55.05
18581;DHT22;9420;50.876;7.012;2023-06-26T09:48:14;24.66;53.94
18581;DHT22;9420;50.876;7.012;2023-06-26T09:50:42;24.59;55.77
18581;DHT22;9420;50.876;7.012;2023-06-26T09:53:09;24.67;55.32
18581;DHT22;9420;50.876;7.012;2023-06-26T09:55:37;24.33;56.56
18581;DHT22;9420;50.876;7.012;2023-06-26T09:58:05;24.04;57.77
18581;DHT22;9420;50.876;7.012;2023-06-26T10:00:32;24.40;55.09
18581;DHT22;9420;50.876;7.012;2023-06-26T10:02:59;24.98;53.21
18581;DHT22;9420;50.876;7.012;2023-06-26T10:05:26;24.71;55.07
18581;DHT22;9420;50.876;7.012;2023-06-26T10:07:53;25.41;52.13
18581;DHT22;9420;50.876;7.012;2023-06-26T10:10:23;24.86;53.31
18581;DHT22;9420;50.876;7.012;2023-06-26T10:12:54;24.33;55.21
18581;DHT22;9420;50.876;7.012;2023-06-26T10:15:24;24.36;55.66
18581;DHT22;9420;50.876;7.012;2023-06-26T10:17:52;23.89;56.64
18581;DHT22;9420;50.876;7.012;2023-06-26T10:20:21;24.09;55.35
18581;DHT22;9420;50.876;7.012;2023-06-26T10:22:48;25.32;53.22
18581;DHT22;9420;50.876;7.012;2023-06-26T10:25:18;24.59;53.22
18581;DHT22;9420;50.876;7.012;2023-06-26T10:27:50;24.18;53.25
18581;DHT22;9420;50.876;7.012;2023-06-26T10:30:20;23.84;55.08
18581;DHT22;9420;50.876;7.012;2023-06-26T10:32:50;24.13;53.17
18581;DHT22;9420;50.876;7.012;2023-06-26T10:35:17;23.94;53.78
18581;DHT22;9420;50.876;7.012;2023-06-26T10:37:45;24.05;54.68
18581;DHT22;9420;50.876;7.012;2023-06-26T10:40:13;23.84;54.83
18581;DHT22;9420;50.876;7.012;2023-06-26T10:42:41;24.76;51.75
18581;DHT22;9420;50.876;7.012;2023-06-26T10:45:14;25.49;50.45
18581;DHT22;9420;50.876;7.012;2023-06-26T10:47:42;25.80;49.19
18581;DHT22;9420;50.876;7.012;2023-06-26T10:50:22;26.27;47.37
18581;DHT22;9420;50.876;7.012;2023-06-26T10:53:07;25.67;49.49
18581;DHT22;9420;50.876;7.012;2023-06-26T10:55:34;26.11;47.53
18581;DHT22;9420;50.876;7.012;2023-06-26T10:58:01;25.28;49.70
18581;DHT22;9420;50.876;7.012;2023-06-26T11:00:28;25.67;49.68
18581;DHT22;9420;50.876;7.012;2023-06-26T11:02:55;25.61;50.91
18581;DHT22;9420;50.876;7.012;2023-06-26T11:05:26;24.87;50.57
18581;DHT22;9420;50.876;7.012;2023-06-26T11:08:03;25.90;48.61
18581;DHT22;9420;50.876;7.012;2023-06-26T11:10:30;25.93;48.59
18581;DHT22;9420;50.876;7.012;2023-06-26T11:13:14;25.10;49.77
18581;DHT22;9420;50.876;7.012;2023-06-26T11:15:42;25.36;49.02
18581;DHT22;9420;50.876;7.012;2023-06-26T11:18:09;26.52;46.11
18581;DHT22;9420;50.876;7.012;2023-06-26T11:20:38;27.06;47.31
18581;DHT22;9420;50.876;7.012;2023-06-26T11:23:05;26.79;47.51
18581;DHT22;9420;50.876;7.012;2023-06-26T11:25:34;27.30;45.67
18581;DHT22;9420;50.876;7.012;2023-06-26T11:28:02;27.16;46.42
18581;DHT22;9420;50.876;7.012;2023-06-26T11:30:28;26.99;45.00
18581;DHT22;9420;50.876;7.012;2023-06-26T11:33:06;27.13;44.41
18581;DHT22;9420;50.876;7.012;2023-06-26T11:35:33;27.77;44.38
18581;DHT22;9420;50.876;7.012;2023-06-26T11:38:03;28.26;42.18
18581;DHT22;9420;50.876;7.012;2023-06-26T11:40:30;27.74;41.53
18581;DHT22;9420;50.876;7.012;2023-06-26T11:42:58;27.78;41.88
18581;DHT22;9420;50.876;7.012;2023-06-26T11:45:25;27.58;41.77
18581;DHT22;9420;50.876;7.012;2023-06-26T11:47:54;26.75;45.05
18581;DHT22;9420;50.876;7.012;2023-06-26T11:50:21;28.12;41.33
18581;DHT22;9420;50.876;7.012;2023-06-26T11:52:52;27.99;42.63
18581;DHT22;9420;50.876;7.012;2023-06-26T11:55:21;27.62;42.83
18581;DHT22;9420;50.876;7.012;2023-06-26T11:57:48;27.37;42.96
18581;DHT22;9420;50.876;7.012;2023-06-26T12:00:16;29.10;40.10
18581;DHT22;9420;50.876;7.012;2023-06-26T12:02:44;27.44;41.86
18581;DHT22;9420;50.876;7.012;2023-06-26T12:05:11;25.90;44.65
18581;DHT22;9420;50.876;7.012;2023-06-26T12:07:38;25.76;45.66
18581;DHT22;9420;50.876;7.012;2023-06-26T12:10:06;25.36;47.04
18581;DHT22;9420;50.876;7.012;2023-06-26T12:12:35;26.90;42.34
18581;DHT22;9420;50.876;7.012;2023-06-26T12:15:01;28.50;40.25
18581;DHT22;9420;50.876;7.012;2023-06-26T12:17:28;28.78;40.61
18581;DHT22;9420;50.876;7.012;2023-06-26T12:19:55;29.28;39.71
18581;DHT22;9420;50.876;7.012;2023-06-26T12:22:22;29.01;40.84
18581;DHT22;9420;50.876;7.012;2023-06-26T12:24:49;29.42;39.00
18581;DHT22;9420;50.876;7.012;2023-06-26T12:27:18;29.07;38.95
18581;DHT22;9420;50.876;7.012;2023-06-26T12:29:50;27.69;42.51
18581;DHT22;9420;50.876;7.012;2023-06-26T12:32:17;26.65;43.65
18581;DHT22;9420;50.876;7.012;2023-06-26T12:34:48;26.07;42.31
18581;DHT22;9420;50.876;7.012;2023-06-26T12:37:15;25.24;43.68
18581;DHT22;9420;50.876;7.012;2023-06-26T12:39:45;25.17;43.50
18581;DHT22;9420;50.876;7.012;2023-06-26T12:42:14;25.72;43.27
18581;DHT22;9420;50.876;7.012;2023-06-26T12:44:40;27.68;39.34
18581;DHT22;9420;50.876;7.012;2023-06-26T12:47:08;26.55;41.44
18581;DHT22;9420;50.876;7.012;2023-06-26T12:49:36;25.93;42.07
18581;DHT22;9420;50.876;7.012;2023-06-26T12:52:04;25.32;44.04
18581;DHT22;9420;50.876;7.012;2023-06-26T12:54:33;25.22;44.53
18581;DHT22;9420;50.876;7.012;2023-06-26T12:57:00;24.76;45.38
18581;DHT22;9420;50.876;7.012;2023-06-26T12:59:27;24.78;45.56
18581;DHT22;9420;50.876;7.012;2023-06-26T13:01:53;25.28;45.16
18581;DHT22;9420;50.876;7.012;2023-06-26T13:04:21;25.24;45.06
18581;DHT22;9420;50.876;7.012;2023-06-26T13:06:48;24.99;44.96
18581;DHT22;9420;50.876;7.012;2023-06-26T13:09:15;25.18;44.39
18581;DHT22;9420;50.876;7.012;2023-06-26T13:11:41;25.14;42.53
18581;DHT22;9420;50.876;7.012;2023-06-26T13:14:08;26.62;40.07
18581;DHT22;9420;50.876;7.012;2023-06-26T13:16:35;28.71;38.76
18581;DHT22;9420;50.876;7.012;2023-06-26T13:19:02;28.95;37.56
18581;DHT22;9420;50.876;7.012;2023-06-26T13:21:30;28.01;37.16
18581;DHT22;9420;50.876;7.012;2023-06-26T13:23:56;26.89;39.87
18581;DHT22;9420;50.876;7.012;2023-06-26T13:26:24;28.60;37.97
18581;DHT22;9420;50.876;7.012;2023-06-26T13:28:52;29.58;33.99
18581;DHT22;9420;50.876;7.012;2023-06-26T13:31:19;29.56;35.15
18581;DHT22;9420;50.876;7.012;2023-06-26T13:33:46;30.62;33.45
18581;DHT22;9420;50.876;7.012;2023-06-26T13:36:14;27.68;37.19
18581;DHT22;9420;50.876;7.012;2023-06-26T13:38:42;29.73;35.17
18581;DHT22;9420;50.876;7.012;2023-06-26T13:41:08;30.37;35.03
18581;DHT22;9420;50.876;7.012;2023-06-26T13:43:35;30.96;32.64
18581;DHT22;9420;50.876;7.012;2023-06-26T13:46:01;29.81;33.37
18581;DHT22;9420;50.876;7.012;2023-06-26T13:48:28;28.71;36.18
18581;DHT22;9420;50.876;7.012;2023-06-26T13:50:55;29.46;34.63
18581;DHT22;9420;50.876;7.012;2023-06-26T13:53:22;29.45;35.36
18581;DHT22;9420;50.876;7.012;2023-06-26T13:55:50;30.32;34.47
18581;DHT22;9420;50.876;7.012;2023-06-26T13:58:17;30.35;34.21
18581;DHT22;9420;50.876;7.012;2023-06-26T14:00:47;27.36;37.40
18581;DHT22;9420;50.876;7.012;2023-06-26T14:03:15;28.33;36.27
18581;DHT22;9420;50.876;7.012;2023-06-26T14:05:43;28.88;34.68
18581;DHT22;9420;50.876;7.012;2023-06-26T14:08:09;30.16;33.65
18581;DHT22;9420;50.876;7.012;2023-06-26T14:10:36;29.77;33.99
18581;DHT22;9420;50.876;7.012;2023-06-26T14:13:04;30.93;33.47
18581;DHT22;9420;50.876;7.012;2023-06-26T14:15:33;31.06;31.97
18581;DHT22;9420;50.876;7.012;2023-06-26T14:18:00;29.58;32.64
18581;DHT22;9420;50.876;7.012;2023-06-26T14:20:28;30.13;33.00
18581;DHT22;9420;50.876;7.012;2023-06-26T14:22:55;28.73;34.94
18581;DHT22;9420;50.876;7.012;2023-06-26T14:25:22;29.45;33.38
18581;DHT22;9420;50.876;7.012;2023-06-26T14:27:49;29.38;32.75
18581;DHT22;9420;50.876;7.012;2023-06-26T14:30:17;29.96;31.45
18581;DHT22;9420;50.876;7.012;2023-06-26T14:32:43;29.31;32.07
18581;DHT22;9420;50.876;7.012;2023-06-26T14:35:10;29.81;31.40
18581;DHT22;9420;50.876;7.012;2023-06-26T14:37:36;28.90;32.37
18581;DHT22;9420;50.876;7.012;2023-06-26T14:40:06;29.53;32.22
18581;DHT22;9420;50.876;7.012;2023-06-26T14:42:33;30.44;31.54
18581;DHT22;9420;50.876;7.012;2023-06-26T14:45:00;30.65;32.51
18581;DHT22;9420;50.876;7.012;2023-06-26T14:47:27;28.75;34.15
18581;DHT22;9420;50.876;7.012;2023-06-26T14:49:54;28.97;33.55
18581;DHT22;9420;50.876;7.012;2023-06-26T14:52:21;26.69;37.24
18581;DHT22;9420;50.876;7.012;2023-06-26T14:54:47;26.53;38.89
18581;DHT22;9420;50.876;7.012;2023-06-26T14:57:14;27.10;37.38
18581;DHT22;9420;50.876;7.012;2023-06-26T14:59:41;27.02;37.21
18581;DHT22;9420;50.876;7.012;2023-06-26T15:02:07;28.63;35.15
18581;DHT22;9420;50.876;7.012;2023-06-26T15:04:35;30.20;33.18
18581;DHT22;9420;50.876;7.012;2023-06-26T15:07:02;27.94;35.84
18581;DHT22;9420;50.876;7.012;2023-06-26T15:09:29;27.27;37.36
18581;DHT22;9420;50.876;7.012;2023-06-26T15:11:57;25.98;37.71
18581;DHT22;9420;50.876;7.012;2023-06-26T15:14:23;25.93;38.35
18581;DHT22;9420;50.876;7.012;2023-06-26T15:16:50;26.92;36.59
18581;DHT22;9420;50.876;7.012;2023-06-26T15:19:16;26.45;37.76
18581;DHT22;9420;50.876;7.012;2023-06-26T15:21:44;25.49;38.96
18581;DHT22;9420;50.876;7.012;2023-06-26T15:24:11;26.25;39.16
18581;DHT22;9420;50.876;7.012;2023-06-26T15:26:38;25.73;38.47
18581;DHT22;9420;50.876;7.012;2023-06-26T15:29:05;26.58;36.92
18581;DHT22;9420;50.876;7.012;2023-06-26T15:31:32;25.97;37.00
18581;DHT22;9420;50.876;7.012;2023-06-26T15:33:59;25.87;37.45
18581;DHT22;9420;50.876;7.012;2023-06-26T15:36:26;26.53;37.68
18581;DHT22;9420;50.876;7.012;2023-06-26T15:38:53;26.73;36.92
18581;DHT22;9420;50.876;7.012;2023-06-26T15:41:20;27.27;36.64
18581;DHT22;9420;50.876;7.012;2023-06-26T15:43:46;27.40;34.97
18581;DHT22;9420;50.876;7.012;2023-06-26T15:46:13;27.34;35.51
18581;DHT22;9420;50.876;7.012;2023-06-26T15:48:40;27.24;35.74